Bachir Chihani — 7TJA — position and weather

sailwx.info

Track history (hours):
 
Tides and Currents Weather Stations Pressure Air Temp Water Temp Dewpoint Dewpoint Depression Visibility Wind Speed Wind Dir Waves Ship Positions

Bachir Chihani

Last reported at 2014-Jul-29 04:30 UTC. Time now 2014-Jul-30 07:12 UTC.
Position N 37°19' E 008°37'.

Length 280 m; draft 9.1 m.

Type: Ship (hazmat cat C). MMSI: 605106010.

Date/timePositionNaut miles runAvg speedWind from/ knotsBaromVisibWave heightAir tempDewpointWater temp
2014-Jul-29 04:30N 37°19' E 008°37'1111.3
2014-Jul-29 03:33N 37°23' E 008°49'1111.5
2014-Jul-29 02:33N 37°26' E 009°03'1211.3
2014-Jul-29 01:31N 37°29' E 009°17'1011.0
2014-Jul-29 00:33N 37°32' E 009°30'1110.9
2014-Jul-28 23:33N 37°35' E 009°43'1010.5
2014-Jul-28 22:33N 37°38' E 009°56'1110.4
2014-Jul-28 21:33N 37°39' E 010°09'1010.6
2014-Jul-28 20:33N 37°38' E 010°22'1110.4
2014-Jul-28 19:32N 37°35' E 010°35'8610.8
2014-Jul-28 11:32N 36°59' E 012°14'1010.3
2014-Jul-28 10:33N 36°55' E 012°25'10 9.8
2014-Jul-28 09:33N 36°50' E 012°36'9 9.3
2014-Jul-28 08:34N 36°47' E 012°47'2110.5
2014-Jul-28 06:33N 36°42' E 013°12'1110.7
2014-Jul-28 05:33N 36°40' E 013°25'1111.3
2014-Jul-28 04:33N 36°38' E 013°39'1111.3
2014-Jul-28 03:33N 36°36' E 013°53'1111.4
2014-Jul-28 02:34N 36°34' E 014°07'1111.2
2014-Jul-28 01:33N 36°31' E 014°20'1111.0
2014-Jul-28 00:34N 36°28' E 014°34'1210.8
2014-Jul-27 23:29N 36°26' E 014°48'41011.0
2014-Jul-26 10:12N 36°10' E 023°16'811.9
2014-Jul-26 09:33N 36°15' E 023°23'1212.1
2014-Jul-26 08:32N 36°24' E 023°34'1111.7
2014-Jul-26 07:33N 36°32' E 023°43'1211.7
2014-Jul-26 06:33N 36°41' E 023°53'1211.9
2014-Jul-26 05:33N 36°50' E 024°04'1211.8
2014-Jul-26 04:33N 36°56' E 024°16'1411.5
2014-Jul-26 03:18N 37°03' E 024°32'811.3
2014-Jul-26 02:33N 37°07' E 024°41'1111.3
2014-Jul-26 01:33N 37°13' E 024°53'1211.5
2014-Jul-26 00:33N 37°16' E 025°07'1111.4
2014-Jul-25 23:33N 37°18' E 025°21'1111.2
2014-Jul-25 22:32N 37°20' E 025°35'9 8.9
2014-Jul-25 21:33N 37°26' E 025°44'1211.8
2014-Jul-25 20:31N 37°38' E 025°44'1211.5
2014-Jul-25 19:30N 37°50' E 025°44'1111.5
2014-Jul-25 18:33N 38°00' E 025°44'1111.3
2014-Jul-25 17:33N 38°12' E 025°43'1111.4
2014-Jul-25 16:34N 38°23' E 025°44'1211.8
2014-Jul-25 15:33N 38°35' E 025°44'2411.8
2014-Jul-25 13:30N 38°59' E 025°43'3511.8
2014-Jul-25 10:32N 39°34' E 025°44'1111.2
2014-Jul-25 09:32N 39°45' E 025°45'1411.2
2014-Jul-25 08:19N 39°57' E 025°53'5110.5
2014-Jul-25 03:28N 40°27' E 026°47'58 1.5
2014-Jul-23 12:26N 40°55' E 027°54'8310.3
2014-Jul-23 04:24N 40°10' E 026°23'24 7.8
2014-Jul-23 01:24N 39°57' E 025°58'6 6.2
2014-Jul-23 00:26N 39°53' E 025°52'5 5.7
2014-Jul-22 23:33N 39°48' E 025°49'9 7.9
2014-Jul-22 22:27N 39°39' E 025°48'9 8.9
2014-Jul-22 21:26N 39°31' E 025°46'18 9.0
2014-Jul-22 19:28N 39°13' E 025°44'9 8.9
2014-Jul-22 18:30N 39°04' E 025°44'9 9.1
2014-Jul-22 17:29N 38°55' E 025°44'8 8.8
2014-Jul-22 16:33N 38°47' E 025°44'9 8.7
2014-Jul-22 15:34N 38°38' E 025°44'9 8.6
2014-Jul-22 14:32N 38°29' E 025°44'9 8.6
2014-Jul-22 13:31N 38°21' E 025°44'9 9.2
2014-Jul-22 12:33N 38°12' E 025°43'9 9.4
2014-Jul-22 11:33N 38°02' E 025°44'11 9.3
2014-Jul-22 10:19N 37°51' E 025°44'8 9.0
2014-Jul-22 09:27N 37°43' E 025°44'8 9.0
2014-Jul-22 08:33N 37°35' E 025°44'1010.1
2014-Jul-22 07:33N 37°25' E 025°44'8 8.3
2014-Jul-22 06:32N 37°20' E 025°35'1010.5
2014-Jul-22 05:34N 37°18' E 025°22'1010.3
2014-Jul-22 04:33N 37°17' E 025°09'1010.3
2014-Jul-22 03:33N 37°15' E 024°56'1110.8
2014-Jul-22 02:33N 37°10' E 024°45'1110.8
2014-Jul-22 01:32N 37°04' E 024°33'1010.6
2014-Jul-22 00:33N 36°59' E 024°22'1010.5
2014-Jul-21 23:34N 36°53' E 024°11'1110.8
2014-Jul-21 22:33N 36°47' E 023°60'1210.9
2014-Jul-21 21:29N 36°38' E 023°50'1011.0
2014-Jul-21 20:33N 36°31' E 023°41'310.9
2014-Jul-21 20:15N 36°28' E 023°38'1210.6
2014-Jul-21 19:05N 36°19' E 023°28'39011.0
2014-Jul-20 07:33N 36°22' E 015°23'1712.1
2014-Jul-20 06:10N 36°23' E 015°03'812.5
2014-Jul-20 05:31N 36°25' E 014°53'1212.7
2014-Jul-20 04:34N 36°27' E 014°38'1212.4
2014-Jul-20 03:33N 36°29' E 014°23'1212.1
2014-Jul-20 02:34N 36°31' E 014°08'1212.3
2014-Jul-20 01:33N 36°33' E 013°53'1212.2
2014-Jul-20 00:33N 36°35' E 013°38'1212.0
2014-Jul-19 23:33N 36°37' E 013°23'1212.5
2014-Jul-19 22:33N 36°39' E 013°08'1313.2
2014-Jul-19 21:34N 36°41' E 012°51'1212.5
2014-Jul-19 20:34N 36°45' E 012°36'1212.4
2014-Jul-19 19:33N 36°51' E 012°23'1212.4
2014-Jul-19 18:33N 36°57' E 012°09'1212.3
2014-Jul-19 17:33N 37°03' E 011°56'1212.4
2014-Jul-19 16:33N 37°08' E 011°42'1212.2
2014-Jul-19 15:33N 37°14' E 011°29'  
Track history (hours):
 
Tides and Currents Weather Stations Pressure Air Temp Water Temp Dewpoint Dewpoint Depression Visibility Wind Speed Wind Dir Waves Ship Positions

Bachir Chihani

Last reported at 2014-Jul-29 04:30 UTC. Time now 2014-Jul-30 07:12 UTC.
Position N 37°19' E 008°37'.

Length 280 m; draft 9.1 m.

Type: Ship (hazmat cat C). MMSI: 605106010.

Date/timePositionNaut miles runAvg speedWind from/ knotsBaromVisibWave heightAir tempDewpointWater temp
2014-Jul-29 04:30N 37°19' E 008°37'1111.3
2014-Jul-29 03:33N 37°23' E 008°49'1111.5
2014-Jul-29 02:33N 37°26' E 009°03'1211.3
2014-Jul-29 01:31N 37°29' E 009°17'1011.0
2014-Jul-29 00:33N 37°32' E 009°30'1110.9
2014-Jul-28 23:33N 37°35' E 009°43'1010.5
2014-Jul-28 22:33N 37°38' E 009°56'1110.4
2014-Jul-28 21:33N 37°39' E 010°09'1010.6
2014-Jul-28 20:33N 37°38' E 010°22'1110.4
2014-Jul-28 19:32N 37°35' E 010°35'8610.8
2014-Jul-28 11:32N 36°59' E 012°14'1010.3
2014-Jul-28 10:33N 36°55' E 012°25'10 9.8
2014-Jul-28 09:33N 36°50' E 012°36'9 9.3
2014-Jul-28 08:34N 36°47' E 012°47'2110.5
2014-Jul-28 06:33N 36°42' E 013°12'1110.7
2014-Jul-28 05:33N 36°40' E 013°25'1111.3
2014-Jul-28 04:33N 36°38' E 013°39'1111.3
2014-Jul-28 03:33N 36°36' E 013°53'1111.4
2014-Jul-28 02:34N 36°34' E 014°07'1111.2
2014-Jul-28 01:33N 36°31' E 014°20'1111.0
2014-Jul-28 00:34N 36°28' E 014°34'1210.8
2014-Jul-27 23:29N 36°26' E 014°48'41011.0
2014-Jul-26 10:12N 36°10' E 023°16'811.9
2014-Jul-26 09:33N 36°15' E 023°23'1212.1
2014-Jul-26 08:32N 36°24' E 023°34'1111.7
2014-Jul-26 07:33N 36°32' E 023°43'1211.7
2014-Jul-26 06:33N 36°41' E 023°53'1211.9
2014-Jul-26 05:33N 36°50' E 024°04'1211.8
2014-Jul-26 04:33N 36°56' E 024°16'1411.5
2014-Jul-26 03:18N 37°03' E 024°32'811.3
2014-Jul-26 02:33N 37°07' E 024°41'1111.3
2014-Jul-26 01:33N 37°13' E 024°53'1211.5
2014-Jul-26 00:33N 37°16' E 025°07'1111.4
2014-Jul-25 23:33N 37°18' E 025°21'1111.2
2014-Jul-25 22:32N 37°20' E 025°35'9 8.9
2014-Jul-25 21:33N 37°26' E 025°44'1211.8
2014-Jul-25 20:31N 37°38' E 025°44'1211.5
2014-Jul-25 19:30N 37°50' E 025°44'1111.5
2014-Jul-25 18:33N 38°00' E 025°44'1111.3
2014-Jul-25 17:33N 38°12' E 025°43'1111.4
2014-Jul-25 16:34N 38°23' E 025°44'1211.8
2014-Jul-25 15:33N 38°35' E 025°44'2411.8
2014-Jul-25 13:30N 38°59' E 025°43'3511.8
2014-Jul-25 10:32N 39°34' E 025°44'1111.2
2014-Jul-25 09:32N 39°45' E 025°45'1411.2
2014-Jul-25 08:19N 39°57' E 025°53'5110.5
2014-Jul-25 03:28N 40°27' E 026°47'58 1.5
2014-Jul-23 12:26N 40°55' E 027°54'8310.3
2014-Jul-23 04:24N 40°10' E 026°23'24 7.8
2014-Jul-23 01:24N 39°57' E 025°58'6 6.2
2014-Jul-23 00:26N 39°53' E 025°52'5 5.7
2014-Jul-22 23:33N 39°48' E 025°49'9 7.9
2014-Jul-22 22:27N 39°39' E 025°48'9 8.9
2014-Jul-22 21:26N 39°31' E 025°46'18 9.0
2014-Jul-22 19:28N 39°13' E 025°44'9 8.9
2014-Jul-22 18:30N 39°04' E 025°44'9 9.1
2014-Jul-22 17:29N 38°55' E 025°44'8 8.8
2014-Jul-22 16:33N 38°47' E 025°44'9 8.7
2014-Jul-22 15:34N 38°38' E 025°44'9 8.6
2014-Jul-22 14:32N 38°29' E 025°44'9 8.6
2014-Jul-22 13:31N 38°21' E 025°44'9 9.2
2014-Jul-22 12:33N 38°12' E 025°43'9 9.4
2014-Jul-22 11:33N 38°02' E 025°44'11 9.3
2014-Jul-22 10:19N 37°51' E 025°44'8 9.0
2014-Jul-22 09:27N 37°43' E 025°44'8 9.0
2014-Jul-22 08:33N 37°35' E 025°44'1010.1
2014-Jul-22 07:33N 37°25' E 025°44'8 8.3
2014-Jul-22 06:32N 37°20' E 025°35'1010.5
2014-Jul-22 05:34N 37°18' E 025°22'1010.3
2014-Jul-22 04:33N 37°17' E 025°09'1010.3
2014-Jul-22 03:33N 37°15' E 024°56'1110.8
2014-Jul-22 02:33N 37°10' E 024°45'1110.8
2014-Jul-22 01:32N 37°04' E 024°33'1010.6
2014-Jul-22 00:33N 36°59' E 024°22'1010.5
2014-Jul-21 23:34N 36°53' E 024°11'1110.8
2014-Jul-21 22:33N 36°47' E 023°60'1210.9
2014-Jul-21 21:29N 36°38' E 023°50'1011.0
2014-Jul-21 20:33N 36°31' E 023°41'310.9
2014-Jul-21 20:15N 36°28' E 023°38'1210.6
2014-Jul-21 19:05N 36°19' E 023°28'39011.0
2014-Jul-20 07:33N 36°22' E 015°23'1712.1
2014-Jul-20 06:10N 36°23' E 015°03'812.5
2014-Jul-20 05:31N 36°25' E 014°53'1212.7
2014-Jul-20 04:34N 36°27' E 014°38'1212.4
2014-Jul-20 03:33N 36°29' E 014°23'1212.1
2014-Jul-20 02:34N 36°31' E 014°08'1212.3
2014-Jul-20 01:33N 36°33' E 013°53'1212.2
2014-Jul-20 00:33N 36°35' E 013°38'1212.0
2014-Jul-19 23:33N 36°37' E 013°23'1212.5
2014-Jul-19 22:33N 36°39' E 013°08'1313.2
2014-Jul-19 21:34N 36°41' E 012°51'1212.5
2014-Jul-19 20:34N 36°45' E 012°36'1212.4
2014-Jul-19 19:33N 36°51' E 012°23'1212.4
2014-Jul-19 18:33N 36°57' E 012°09'1212.3
2014-Jul-19 17:33N 37°03' E 011°56'1212.4
2014-Jul-19 16:33N 37°08' E 011°42'1212.2
2014-Jul-19 15:33N 37°14' E 011°29'  

Dump ship's entire track history